createdAt,value
2022-12-11T00:01:16.555Z,68.05
2022-12-11T00:03:47.251Z,68.51
2022-12-11T00:06:17.727Z,68.45
2022-12-11T00:08:46.632Z,68.95
2022-12-11T00:11:17.594Z,70.59
2022-12-11T00:13:46.095Z,70.49
2022-12-11T00:16:15.411Z,70.30
2022-12-11T00:18:43.846Z,69.08
2022-12-11T00:21:14.721Z,69.73
2022-12-11T00:23:43.835Z,69.39
2022-12-11T00:26:16.077Z,69.59
2022-12-11T00:28:47.178Z,70.33
2022-12-11T00:31:18.735Z,69.20
2022-12-11T00:33:49.169Z,70.35
2022-12-11T00:36:20.153Z,70.00
2022-12-11T00:38:49.143Z,70.80
2022-12-11T00:41:18.950Z,70.46
2022-12-11T00:43:49.426Z,70.11
2022-12-11T00:46:18.313Z,69.66
2022-12-11T00:48:48.626Z,69.79
2022-12-11T00:51:17.722Z,71.96
2022-12-11T00:53:46.259Z,71.72
2022-12-11T00:56:18.022Z,71.37
2022-12-11T00:58:48.620Z,71.85
2022-12-11T01:01:20.609Z,72.10
2022-12-11T01:03:49.359Z,71.45
2022-12-11T01:06:20.782Z,72.36
2022-12-11T01:09:09.684Z,73.88
2022-12-11T01:11:37.587Z,72.53
2022-12-11T01:14:07.856Z,74.68
2022-12-11T01:16:36.806Z,73.52
2022-12-11T01:19:05.322Z,74.55
2022-12-11T01:21:34.034Z,75.15
2022-12-11T01:24:02.474Z,74.38
2022-12-11T01:26:31.297Z,74.51
2022-12-11T01:29:00.242Z,73.99
2022-12-11T01:31:31.208Z,74.05
2022-12-11T01:33:59.694Z,74.36
2022-12-11T01:36:28.469Z,74.46
2022-12-11T01:38:57.628Z,75.32
2022-12-11T01:41:26.370Z,75.22
2022-12-11T01:44:03.370Z,74.98
2022-12-11T01:46:35.559Z,75.35
2022-12-11T01:49:07.201Z,75.26
2022-12-11T01:51:41.229Z,74.75
2022-12-11T01:54:14.637Z,74.88
2022-12-11T01:56:46.080Z,73.03
2022-12-11T01:59:18.919Z,75.24
2022-12-11T02:01:56.171Z,74.58
2022-12-11T02:04:25.589Z,73.94
2022-12-11T02:06:54.628Z,74.47
2022-12-11T02:09:28.919Z,74.94
2022-12-11T02:12:03.758Z,73.84
2022-12-11T02:14:40.096Z,76.70
2022-12-11T02:17:14.687Z,74.94
2022-12-11T02:19:53.211Z,76.72
2022-12-11T02:22:40.684Z,77.91
2022-12-11T02:25:21.947Z,78.71
2022-12-11T02:27:58.411Z,78.03
2022-12-11T02:30:28.764Z,77.53
2022-12-11T02:32:59.277Z,78.20
2022-12-11T02:35:33.259Z,78.63
2022-12-11T02:38:06.820Z,78.13
2022-12-11T02:40:40.338Z,76.62
2022-12-11T02:43:13.916Z,76.39
2022-12-11T02:45:47.570Z,76.34
2022-12-11T02:48:18.942Z,75.92
2022-12-11T02:50:52.576Z,77.61
2022-12-11T02:53:25.371Z,78.20
2022-12-11T02:56:00.285Z,77.53
2022-12-11T02:58:33.528Z,76.91
2022-12-11T03:01:03.499Z,77.94
2022-12-11T03:03:32.281Z,76.67
2022-12-11T03:06:01.440Z,75.72
2022-12-11T03:08:30.302Z,75.47
2022-12-11T03:10:58.924Z,76.54
2022-12-11T03:13:28.277Z,78.11
2022-12-11T03:16:12.109Z,77.35
2022-12-11T03:18:45.009Z,77.95
2022-12-11T03:21:18.324Z,78.16
2022-12-11T03:23:53.260Z,79.49
2022-12-11T03:26:24.468Z,79.76
2022-12-11T03:28:59.582Z,80.16
2022-12-11T03:31:35.916Z,80.62
2022-12-11T03:34:12.160Z,81.19
2022-12-11T03:36:41.403Z,81.09
2022-12-11T03:39:16.468Z,80.51
2022-12-11T03:41:47.483Z,80.46
2022-12-11T03:44:18.532Z,80.33
2022-12-11T03:46:51.583Z,78.49
2022-12-11T03:49:24.358Z,79.55
2022-12-11T03:51:55.727Z,80.07
2022-12-11T03:54:25.553Z,80.92
2022-12-11T03:56:58.263Z,79.76
2022-12-11T03:59:27.251Z,81.05
2022-12-11T04:01:57.165Z,80.30
2022-12-11T04:04:26.003Z,80.18
2022-12-11T04:06:54.366Z,80.52
2022-12-11T04:09:23.102Z,79.10
2022-12-11T04:11:51.582Z,78.02
2022-12-11T04:14:38.018Z,78.47
2022-12-11T04:17:07.841Z,77.31
2022-12-11T04:19:54.268Z,78.47
2022-12-11T04:22:40.260Z,80.08
2022-12-11T04:25:09.862Z,78.32
2022-12-11T04:27:50.568Z,78.73
2022-12-11T04:30:22.592Z,78.63
2022-12-11T04:32:53.628Z,78.20
2022-12-11T04:35:23.460Z,77.60
2022-12-11T04:37:53.070Z,77.54
2022-12-11T04:40:22.236Z,77.83
2022-12-11T04:42:50.807Z,76.77
2022-12-11T04:45:19.668Z,77.15
2022-12-11T04:47:48.077Z,77.43
2022-12-11T04:50:18.293Z,77.64
2022-12-11T04:52:46.816Z,77.96
2022-12-11T04:55:15.853Z,76.79
2022-12-11T04:57:44.300Z,76.61
2022-12-11T05:00:14.211Z,75.68
2022-12-11T05:02:43.707Z,75.98
2022-12-11T05:05:13.503Z,75.46
2022-12-11T05:07:43.735Z,75.77
2022-12-11T05:10:12.415Z,74.67
2022-12-11T05:12:40.879Z,73.69
2022-12-11T05:15:10.816Z,72.77
2022-12-11T05:17:39.582Z,71.93
2022-12-11T05:20:09.604Z,73.58
2022-12-11T05:22:38.757Z,73.12
2022-12-11T05:25:09.977Z,73.82
2022-12-11T05:27:38.521Z,76.22
2022-12-11T05:30:08.641Z,77.48
2022-12-11T05:32:37.102Z,75.54
2022-12-11T05:35:06.798Z,75.81
2022-12-11T05:37:35.593Z,75.68
2022-12-11T05:40:06.425Z,76.61
2022-12-11T05:42:36.535Z,75.40
2022-12-11T05:45:06.488Z,77.10
2022-12-11T05:47:34.975Z,76.00
2022-12-11T05:50:03.715Z,74.97
2022-12-11T05:52:33.383Z,74.29
2022-12-11T05:55:02.094Z,74.44
2022-12-11T05:57:30.515Z,75.42
2022-12-11T06:00:00.533Z,75.26
2022-12-11T06:02:29.005Z,74.76
2022-12-11T06:04:57.977Z,74.11
2022-12-11T06:07:26.314Z,72.58
2022-12-11T06:09:55.082Z,74.71
2022-12-11T06:12:23.490Z,76.11
2022-12-11T06:14:52.113Z,75.26
2022-12-11T06:17:21.876Z,74.29
2022-12-11T06:19:50.581Z,73.75
2022-12-11T06:22:19.084Z,74.29
2022-12-11T06:24:48.096Z,75.83
2022-12-11T06:27:16.595Z,75.70
2022-12-11T06:29:45.349Z,74.98
2022-12-11T06:32:13.849Z,74.56
2022-12-11T06:34:43.900Z,74.02
2022-12-11T06:37:12.365Z,76.28
2022-12-11T06:39:41.236Z,77.67
2022-12-11T06:42:09.560Z,77.54
2022-12-11T06:44:38.355Z,76.25
2022-12-11T06:47:06.750Z,76.52
2022-12-11T06:49:35.507Z,75.98
2022-12-11T06:52:07.007Z,77.07
2022-12-11T06:54:36.435Z,77.76
2022-12-11T06:57:05.290Z,78.00
2022-12-11T06:59:35.080Z,78.03
2022-12-11T07:02:03.542Z,77.88
2022-12-11T07:04:32.380Z,79.77
2022-12-11T07:07:01.036Z,79.01
2022-12-11T07:09:31.333Z,78.92
2022-12-11T07:11:59.779Z,79.33
2022-12-11T07:14:28.462Z,78.86
2022-12-11T07:16:57.228Z,79.66
2022-12-11T07:19:26.090Z,79.86
2022-12-11T07:21:54.722Z,79.31
2022-12-11T07:24:23.994Z,78.14
2022-12-11T07:26:54.048Z,78.30
2022-12-11T07:29:22.805Z,79.04
2022-12-11T07:31:51.258Z,77.71
2022-12-11T07:34:20.049Z,76.73
2022-12-11T07:36:48.490Z,77.22
2022-12-11T07:39:17.290Z,76.52
2022-12-11T07:41:47.068Z,75.41
2022-12-11T07:44:19.143Z,77.43
2022-12-11T07:46:47.682Z,77.24
2022-12-11T07:49:17.211Z,77.17
2022-12-11T07:51:45.699Z,77.87
2022-12-11T07:54:16.951Z,77.40
2022-12-11T07:56:52.756Z,78.15
2022-12-11T07:59:23.854Z,76.96
2022-12-11T08:01:52.302Z,77.15
2022-12-11T08:04:21.014Z,77.35
2022-12-11T08:06:49.500Z,78.43
2022-12-11T08:09:22.680Z,78.31
2022-12-11T08:11:51.567Z,77.90
2022-12-11T08:14:20.768Z,77.24
2022-12-11T08:16:50.978Z,76.59
2022-12-11T08:19:19.813Z,75.09
2022-12-11T08:21:48.177Z,76.79
2022-12-11T08:24:20.617Z,77.28
2022-12-11T08:26:49.545Z,75.29
2022-12-11T08:29:19.679Z,76.44
2022-12-11T08:31:48.235Z,77.05
2022-12-11T08:34:18.314Z,75.30
2022-12-11T08:36:46.898Z,74.46
2022-12-11T08:39:15.691Z,75.36
2022-12-11T08:41:44.132Z,75.57
2022-12-11T08:44:16.732Z,75.44
2022-12-11T08:46:45.847Z,76.97
2022-12-11T08:49:14.823Z,77.01
2022-12-11T08:51:44.600Z,78.29
2022-12-11T08:54:13.352Z,77.74
2022-12-11T08:56:41.811Z,77.11
2022-12-11T08:59:10.941Z,78.01
2022-12-11T09:01:39.505Z,78.06
2022-12-11T09:04:08.405Z,76.84
2022-12-11T09:06:36.901Z,75.51
2022-12-11T09:09:08.172Z,77.12
2022-12-11T09:11:38.645Z,75.95
2022-12-11T09:14:08.365Z,76.09
2022-12-11T09:16:40.457Z,75.41
2022-12-11T09:19:12.692Z,74.79
2022-12-11T09:21:41.985Z,75.54
2022-12-11T09:24:13.595Z,73.74
2022-12-11T09:26:42.622Z,73.67
2022-12-11T09:29:12.197Z,73.96
2022-12-11T09:31:40.669Z,75.19
2022-12-11T09:34:12.588Z,77.31
2022-12-11T09:36:42.136Z,75.60
2022-12-11T09:39:13.652Z,75.71
2022-12-11T09:41:50.887Z,76.36
2022-12-11T09:44:26.869Z,76.83
2022-12-11T09:46:55.529Z,77.59
2022-12-11T09:49:29.710Z,76.56
2022-12-11T09:52:06.062Z,77.72
2022-12-11T09:54:36.797Z,76.55
2022-12-11T09:57:19.664Z,76.14
2022-12-11T10:00:04.919Z,75.96
2022-12-11T10:02:47.769Z,74.04
2022-12-11T10:05:23.547Z,75.32
2022-12-11T10:08:00.703Z,74.38
2022-12-11T10:10:42.806Z,73.10
2022-12-11T10:13:26.085Z,73.41
2022-12-11T10:16:00.279Z,73.09
2022-12-11T10:18:30.996Z,72.48
2022-12-11T10:21:03.457Z,72.20
2022-12-11T10:23:36.608Z,72.27
2022-12-11T10:26:09.629Z,71.94
2022-12-11T10:28:38.144Z,72.65
2022-12-11T10:31:17.238Z,72.88
2022-12-11T10:33:55.924Z,73.14
2022-12-11T10:36:29.045Z,72.34
2022-12-11T10:38:57.885Z,72.57
2022-12-11T10:41:38.097Z,72.01
2022-12-11T10:44:17.559Z,71.25
2022-12-11T10:46:47.074Z,71.93
2022-12-11T10:49:24.562Z,73.13
2022-12-11T10:51:54.358Z,72.27
2022-12-11T10:54:32.286Z,72.36
2022-12-11T10:57:04.870Z,73.08
2022-12-11T10:59:39.520Z,73.95
2022-12-11T11:02:23.039Z,73.70
2022-12-11T11:04:52.888Z,73.44
2022-12-11T11:07:25.115Z,73.44
2022-12-11T11:10:07.700Z,72.88
2022-12-11T11:12:42.367Z,71.35
2022-12-11T11:15:15.311Z,69.44
2022-12-11T11:17:54.463Z,70.96
2022-12-11T11:20:25.901Z,69.85
2022-12-11T11:22:57.277Z,69.97
2022-12-11T11:25:27.291Z,70.08
2022-12-11T11:27:59.320Z,71.51
2022-12-11T11:30:30.856Z,70.60
2022-12-11T11:33:03.668Z,71.09
2022-12-11T11:35:33.264Z,70.51
2022-12-11T11:38:06.957Z,71.07
2022-12-11T11:40:40.735Z,70.54
2022-12-11T11:43:19.958Z,70.31
2022-12-11T11:45:54.895Z,70.93
2022-12-11T11:48:34.341Z,70.83
2022-12-11T11:51:14.783Z,71.54
2022-12-11T11:53:49.333Z,71.34
2022-12-11T11:56:25.280Z,71.46
2022-12-11T11:59:07.292Z,71.36
2022-12-11T12:01:35.948Z,71.56
2022-12-11T12:04:05.992Z,71.95
2022-12-11T12:07:05.581Z,70.86
2022-12-11T12:09:46.867Z,71.92
2022-12-11T12:12:29.753Z,69.54
2022-12-11T12:15:19.370Z,68.61
2022-12-11T12:17:56.116Z,69.50
2022-12-11T12:20:36.838Z,69.34
2022-12-11T12:23:24.324Z,69.68
2022-12-11T12:26:01.141Z,70.57
2022-12-11T12:28:39.493Z,70.92
2022-12-11T12:31:26.177Z,71.53
2022-12-11T12:34:05.524Z,70.92
2022-12-11T12:36:41.355Z,69.20
2022-12-11T12:39:19.458Z,70.03
2022-12-11T12:42:01.345Z,70.34
2022-12-11T12:44:43.517Z,70.97
2022-12-11T12:47:16.855Z,70.38
2022-12-11T12:49:48.027Z,71.51
2022-12-11T12:52:19.854Z,71.38
2022-12-11T12:55:05.964Z,71.68
2022-12-11T12:57:36.294Z,69.66
2022-12-11T13:00:12.545Z,69.68
2022-12-11T13:02:51.525Z,70.46
2022-12-11T13:05:26.006Z,71.04
2022-12-11T13:07:58.402Z,71.33
2022-12-11T13:10:31.390Z,72.60
2022-12-11T13:13:01.408Z,72.27
2022-12-11T13:15:42.669Z,71.01
2022-12-11T13:18:35.921Z,71.46
2022-12-11T13:21:25.423Z,71.00
2022-12-11T13:23:54.519Z,71.72
2022-12-11T13:26:30.881Z,71.18
2022-12-11T13:29:00.171Z,69.86
2022-12-11T13:31:38.228Z,69.38
2022-12-11T13:34:22.777Z,70.30
2022-12-11T13:36:54.239Z,71.14
2022-12-11T13:39:26.180Z,69.76
2022-12-11T13:41:58.789Z,70.38
2022-12-11T13:44:30.745Z,71.29
2022-12-11T13:47:01.743Z,70.94
2022-12-11T13:49:37.140Z,72.17
2022-12-11T13:52:07.313Z,72.55
2022-12-11T13:54:37.586Z,72.78
2022-12-11T13:57:18.022Z,72.22
2022-12-11T13:59:50.280Z,72.33
2022-12-11T14:02:24.020Z,71.41
2022-12-11T14:04:58.523Z,71.85
2022-12-11T14:07:30.893Z,72.81
2022-12-11T14:10:03.732Z,72.12
2022-12-11T14:12:33.960Z,71.58
2022-12-11T14:15:05.434Z,71.08
2022-12-11T14:17:36.510Z,71.38
2022-12-11T14:20:08.525Z,71.97
2022-12-11T14:22:37.275Z,71.34
2022-12-11T14:25:21.828Z,71.47
2022-12-11T14:27:52.582Z,71.74
2022-12-11T14:30:27.345Z,71.61
2022-12-11T14:32:59.466Z,72.12
2022-12-11T14:35:38.387Z,71.63
2022-12-11T14:38:17.533Z,70.88
2022-12-11T14:40:50.416Z,71.35
2022-12-11T14:43:24.669Z,71.07
2022-12-11T14:46:00.482Z,70.19
2022-12-11T14:48:34.089Z,70.00
2022-12-11T14:51:08.805Z,69.51
2022-12-11T14:53:41.573Z,69.15
2022-12-11T14:56:19.369Z,69.23
2022-12-11T14:58:53.999Z,68.24
2022-12-11T15:01:25.835Z,68.95
2022-12-11T15:04:05.763Z,69.66
2022-12-11T15:06:44.032Z,70.37
2022-12-11T15:09:25.830Z,70.04
2022-12-11T15:11:58.021Z,70.25
2022-12-11T15:14:28.020Z,69.59
2022-12-11T15:16:58.818Z,69.42
2022-12-11T15:19:31.586Z,69.12
2022-12-11T15:22:05.977Z,69.63
2022-12-11T15:24:39.438Z,70.88
2022-12-11T15:27:25.107Z,70.31
2022-12-11T15:29:53.627Z,69.09
2022-12-11T15:32:23.685Z,70.88
2022-12-11T15:34:54.038Z,70.50
2022-12-11T15:37:26.694Z,69.43
2022-12-11T15:39:56.883Z,69.49
2022-12-11T15:42:28.814Z,68.93
2022-12-11T15:44:58.194Z,67.32
2022-12-11T15:47:29.043Z,68.48
2022-12-11T15:50:00.748Z,67.35
2022-12-11T15:52:31.107Z,66.24
2022-12-11T15:54:59.551Z,67.68
2022-12-11T15:57:28.362Z,65.64
2022-12-11T15:59:57.260Z,66.63
2022-12-11T16:02:26.907Z,67.41
2022-12-11T16:04:57.692Z,66.67
2022-12-11T16:07:27.755Z,66.53
2022-12-11T16:09:57.661Z,68.06
2022-12-11T16:12:26.990Z,68.16
2022-12-11T16:14:55.372Z,67.61
2022-12-11T16:17:24.188Z,67.67
2022-12-11T16:19:54.719Z,68.04
2022-12-11T16:22:23.597Z,67.72
2022-12-11T16:24:54.784Z,68.36
2022-12-11T16:27:25.161Z,69.13
2022-12-11T16:29:53.781Z,69.73
2022-12-11T16:32:22.617Z,69.61
2022-12-11T16:34:51.272Z,70.15
2022-12-11T16:37:20.153Z,69.77
2022-12-11T16:39:48.635Z,69.75
2022-12-11T16:42:17.470Z,69.09
2022-12-11T16:44:47.507Z,69.40
2022-12-11T16:47:16.390Z,68.85
2022-12-11T16:49:45.343Z,68.94
2022-12-11T16:52:18.985Z,67.90
2022-12-11T16:54:50.481Z,68.42
2022-12-11T16:57:19.332Z,67.85
2022-12-11T16:59:49.901Z,67.49
2022-12-11T17:02:19.315Z,66.67
2022-12-11T17:04:53.635Z,64.98
2022-12-11T17:07:22.929Z,64.18
2022-12-11T17:09:51.645Z,64.62
2022-12-11T17:12:25.797Z,64.52
2022-12-11T17:14:56.154Z,63.33
2022-12-11T17:17:25.574Z,63.08
2022-12-11T17:19:54.104Z,63.53
2022-12-11T17:22:23.349Z,63.36
2022-12-11T17:24:51.974Z,62.31
2022-12-11T17:27:21.082Z,62.59
2022-12-11T17:29:50.932Z,61.40
2022-12-11T17:32:21.227Z,61.94
2022-12-11T17:34:50.548Z,63.48
2022-12-11T17:37:20.216Z,62.65
2022-12-11T17:39:48.807Z,63.12
2022-12-11T17:42:17.812Z,65.28
2022-12-11T17:44:46.587Z,64.30
2022-12-11T17:47:15.424Z,62.69
2022-12-11T17:49:45.459Z,64.91
2022-12-11T17:52:14.178Z,65.71
2022-12-11T17:54:42.963Z,65.42
2022-12-11T17:57:11.906Z,64.97
2022-12-11T17:59:40.458Z,66.96
2022-12-11T18:02:10.713Z,65.69
2022-12-11T18:04:39.690Z,66.25
2022-12-11T18:07:10.034Z,64.33
2022-12-11T18:09:40.813Z,63.30
2022-12-11T18:12:10.687Z,63.20
2022-12-11T18:14:39.326Z,62.95
2022-12-11T18:17:08.417Z,61.34
2022-12-11T18:19:40.232Z,61.22
2022-12-11T18:22:14.690Z,60.40
2022-12-11T18:24:43.206Z,60.93
2022-12-11T18:27:14.492Z,60.69
2022-12-11T18:29:43.066Z,60.06
2022-12-11T18:32:11.793Z,62.55
2022-12-11T18:34:40.287Z,61.52
2022-12-11T18:37:09.179Z,61.86
2022-12-11T18:39:39.152Z,62.74
2022-12-11T18:42:32.333Z,62.45
2022-12-11T18:44:56.951Z,62.12
2022-12-11T18:47:25.894Z,60.90
2022-12-11T18:49:55.165Z,60.40
2022-12-11T18:52:24.299Z,60.43
2022-12-11T18:54:54.233Z,61.09
2022-12-11T18:57:23.186Z,60.45
2022-12-11T18:59:53.113Z,59.95
2022-12-11T19:02:23.057Z,61.30
2022-12-11T19:04:51.606Z,61.39
2022-12-11T19:07:20.469Z,60.15
2022-12-11T19:09:49.072Z,59.91
2022-12-11T19:12:19.847Z,59.73
2022-12-11T19:14:48.871Z,59.52
2022-12-11T19:17:17.864Z,61.16
2022-12-11T19:19:47.435Z,61.70
2022-12-11T19:22:16.385Z,63.13
2022-12-11T19:24:45.147Z,63.43
2022-12-11T19:27:14.252Z,63.61
2022-12-11T19:29:44.698Z,62.08
2022-12-11T19:32:13.573Z,63.04
2022-12-11T19:34:41.980Z,63.11
2022-12-11T19:37:10.822Z,62.49
2022-12-11T19:39:40.442Z,62.53
2022-12-11T19:42:09.125Z,61.82
2022-12-11T19:44:37.812Z,60.82
2022-12-11T19:47:08.392Z,62.05
2022-12-11T19:49:37.088Z,63.04
2022-12-11T19:52:06.116Z,62.43
2022-12-11T19:54:34.647Z,63.31
2022-12-11T19:57:04.309Z,63.88
2022-12-11T19:59:33.044Z,64.81
2022-12-11T20:02:02.009Z,67.22
2022-12-11T20:04:32.366Z,68.42
2022-12-11T20:07:01.367Z,68.68
2022-12-11T20:09:30.195Z,68.74
2022-12-11T20:11:59.289Z,69.64
2022-12-11T20:14:29.103Z,69.55
2022-12-11T20:17:14.742Z,68.89
2022-12-11T20:19:45.392Z,67.31
2022-12-11T20:22:14.432Z,66.33
2022-12-11T20:24:42.907Z,64.67
2022-12-11T20:27:12.550Z,63.74
2022-12-11T20:29:41.282Z,63.23
2022-12-11T20:32:12.417Z,62.43
2022-12-11T20:34:41.354Z,62.38
2022-12-11T20:37:11.649Z,62.68
2022-12-11T20:39:40.454Z,61.65
2022-12-11T20:42:10.758Z,61.40
2022-12-11T20:44:42.811Z,60.58
2022-12-11T20:47:16.324Z,60.98
2022-12-11T20:49:45.054Z,61.92
2022-12-11T20:52:15.359Z,60.29
2022-12-11T20:54:44.115Z,60.21
2022-12-11T20:57:15.030Z,60.40
2022-12-11T20:59:44.340Z,60.85
2022-12-11T21:02:13.595Z,60.96
2022-12-11T21:04:43.722Z,60.82
2022-12-11T21:07:13.099Z,61.34
2022-12-11T21:09:43.172Z,61.55
2022-12-11T21:12:12.092Z,62.03
2022-12-11T21:14:40.955Z,62.06
2022-12-11T21:17:09.843Z,61.78
2022-12-11T21:19:40.069Z,61.07
2022-12-11T21:22:09.112Z,62.01
2022-12-11T21:24:39.036Z,63.08
2022-12-11T21:27:09.438Z,62.48
2022-12-11T21:29:38.221Z,61.36
2022-12-11T21:32:07.274Z,64.23
2022-12-11T21:34:37.785Z,63.93
2022-12-11T21:37:07.607Z,65.93
2022-12-11T21:39:39.303Z,64.78
2022-12-11T21:42:10.031Z,66.39
2022-12-11T21:47:28.851Z,66.43
2022-12-11T21:49:57.418Z,67.44
2022-12-11T21:52:26.416Z,67.36
2022-12-11T21:54:54.971Z,67.36
2022-12-11T21:57:26.820Z,67.91
2022-12-11T21:59:55.632Z,67.84
2022-12-11T22:02:24.613Z,68.27
2022-12-11T22:04:53.184Z,68.37
2022-12-11T22:07:22.005Z,67.43
2022-12-11T22:09:50.542Z,66.73
2022-12-11T22:12:25.644Z,67.02
2022-12-11T22:14:54.219Z,67.77
2022-12-11T22:17:23.465Z,67.81
2022-12-11T22:19:52.911Z,67.18
2022-12-11T22:22:21.732Z,67.38
2022-12-11T22:24:50.848Z,66.37
2022-12-11T22:27:23.628Z,66.27
2022-12-11T22:29:54.168Z,66.51
2022-12-11T22:32:23.459Z,66.07
2022-12-11T22:34:51.926Z,66.75
2022-12-11T22:37:20.829Z,67.06
2022-12-11T22:39:49.349Z,67.53
2022-12-11T22:42:18.169Z,67.83
2022-12-11T22:44:46.788Z,67.60
2022-12-11T22:47:19.197Z,67.36
2022-12-11T22:49:47.811Z,67.75
2022-12-11T22:52:16.720Z,67.36
2022-12-11T22:54:45.343Z,68.02
2022-12-11T22:57:14.906Z,67.18
2022-12-11T22:59:43.374Z,66.20
2022-12-11T23:02:12.183Z,66.13
2022-12-11T23:04:42.278Z,64.66
2022-12-11T23:07:11.122Z,64.86
2022-12-11T23:09:39.549Z,66.53
2022-12-11T23:12:08.982Z,66.76
2022-12-11T23:14:37.597Z,66.79
2022-12-11T23:17:06.555Z,66.82
2022-12-11T23:19:35.039Z,66.92
2022-12-11T23:22:05.359Z,67.13
2022-12-11T23:24:35.273Z,67.45
2022-12-11T23:27:04.136Z,67.28
2022-12-11T23:29:32.651Z,66.88
2022-12-11T23:32:01.387Z,67.55
2022-12-11T23:34:29.978Z,67.53
2022-12-11T23:36:58.835Z,67.63
2022-12-11T23:39:28.816Z,66.94
2022-12-11T23:41:57.775Z,67.41
2022-12-11T23:44:26.453Z,67.88
2022-12-11T23:46:55.368Z,67.67
2022-12-11T23:49:23.838Z,67.41
2022-12-11T23:51:52.900Z,66.78
2022-12-11T23:54:21.416Z,67.32
2022-12-11T23:56:51.503Z,67.32
2022-12-11T23:59:20.001Z,67.67
